Time;durP1;ratioP1;P1;durP2;ratioP2;P2;SDS_P1;SDS_P2;PMS_P1;PMS_P2;Temp;Humidity;BMP_temperature;BMP_pressure;BME280_temperature;BME280_humidity;BME280_pressure;Samples;Min_cycle;Max_cycle;Signal;HPM_P1;HPM_P2
2023/11/27 00:00:16;;;;;;;2.40;0.52;;;4.60;99.90;;;;;;5050816;28;20028;-74
2023/11/27 00:02:41;;;;;;;4.60;1.23;;;4.60;99.90;;;;;;5034162;28;20036;-74
2023/11/27 00:05:08;;;;;;;1.10;0.55;;;4.60;99.90;;;;;;5034371;28;20047;-75
2023/11/27 00:07:34;;;;;;;2.10;1.85;;;4.70;99.90;;;;;;5037679;28;20035;-74
2023/11/27 00:09:59;;;;;;;3.25;1.23;;;4.70;99.90;;;;;;5036643;28;20029;-75
2023/11/27 00:12:25;;;;;;;3.63;0.73;;;4.70;99.90;;;;;;5032813;28;20097;-74
2023/11/27 00:14:51;;;;;;;4.35;3.30;;;4.70;99.90;;;;;;5031695;28;20087;-74
2023/11/27 00:17:17;;;;;;;1.13;1.02;;;4.70;99.90;;;;;;5049899;28;20033;-74
2023/11/27 00:19:43;;;;;;;9.32;1.75;;;4.60;99.90;;;;;;5050633;28;20078;-74
2023/11/27 00:22:08;;;;;;;1.17;0.90;;;4.60;99.90;;;;;;5005968;28;20379;-74
2023/11/27 00:24:35;;;;;;;2.05;0.65;;;4.60;99.90;;;;;;4990217;28;20462;-74
2023/11/27 00:27:00;;;;;;;1.20;1.02;;;4.70;99.90;;;;;;5009935;28;20499;-74
2023/11/27 00:29:28;;;;;;;2.63;1.55;;;4.70;99.90;;;;;;4989700;28;20076;-74
2023/11/27 00:31:54;;;;;;;1.65;0.55;;;4.70;99.90;;;;;;4976334;28;20038;-74
2023/11/27 00:34:20;;;;;;;1.08;0.75;;;4.70;99.90;;;;;;4989968;28;20030;-74
2023/11/27 00:36:45;;;;;;;1.52;1.20;;;4.60;99.90;;;;;;4991674;28;20486;-74
2023/11/27 00:39:11;;;;;;;0.57;0.50;;;4.60;99.90;;;;;;4993298;28;20037;-75
2023/11/27 00:41:37;;;;;;;2.65;1.25;;;4.60;99.90;;;;;;4987870;28;20096;-74
2023/11/27 00:44:04;;;;;;;2.38;0.93;;;4.60;99.90;;;;;;4993182;28;20123;-74
2023/11/27 00:46:30;;;;;;;0.75;0.65;;;4.70;99.90;;;;;;4988121;28;20034;-74
2023/11/27 00:48:55;;;;;;;1.42;1.33;;;4.60;99.90;;;;;;5009330;28;20426;-74
2023/11/27 00:51:22;;;;;;;2.33;1.17;;;4.50;99.90;;;;;;5009031;28;20051;-74
2023/11/27 00:53:48;;;;;;;3.17;0.75;;;4.50;99.90;;;;;;5029071;28;20406;-74
2023/11/27 00:56:14;;;;;;;0.32;0.32;;;4.50;99.90;;;;;;5016715;28;20039;-74
2023/11/27 00:58:39;;;;;;;0.55;0.52;;;4.50;99.90;;;;;;5033349;28;20036;-74
2023/11/27 01:01:06;;;;;;;1.55;0.73;;;4.50;99.90;;;;;;5046415;28;20067;-74
2023/11/27 01:03:32;;;;;;;0.60;0.60;;;4.60;99.90;;;;;;5051356;28;20084;-74
2023/11/27 01:05:58;;;;;;;0.77;0.73;;;4.50;99.90;;;;;;5016401;28;20425;-74
2023/11/27 01:08:24;;;;;;;1.58;0.73;;;4.50;99.90;;;;;;5033448;28;20087;-75
2023/11/27 01:10:51;;;;;;;13.73;1.33;;;4.40;99.90;;;;;;5046312;28;20029;-77
2023/11/27 01:13:17;;;;;;;1.80;1.52;;;4.30;99.90;;;;;;5033209;28;20056;-74
2023/11/27 01:15:42;;;;;;;2.20;1.55;;;4.30;99.90;;;;;;5033018;28;20084;-74
2023/11/27 01:18:08;;;;;;;1.02;0.73;;;4.30;99.90;;;;;;5033429;28;20558;-75
2023/11/27 01:20:39;;;;;;;0.75;0.75;;;4.30;99.90;;;;;;5032898;28;20404;-75
2023/11/27 01:23:05;;;;;;;1.73;1.10;;;4.20;99.90;;;;;;5016872;28;20021;-74
2023/11/27 01:25:30;;;;;;;3.67;2.22;;;4.30;99.90;;;;;;5045830;28;20045;-75
2023/11/27 01:27:57;;;;;;;1.38;0.93;;;4.30;99.90;;;;;;5037351;28;20017;-75
2023/11/27 01:30:22;;;;;;;0.75;0.75;;;4.20;99.90;;;;;;5032531;28;20036;-74
2023/11/27 01:32:48;;;;;;;5.35;1.30;;;4.20;99.90;;;;;;5051072;28;20112;-75
2023/11/27 01:35:14;;;;;;;4.95;1.65;;;4.30;99.90;;;;;;5049668;28;20044;-75
2023/11/27 01:37:40;;;;;;;5.43;1.77;;;4.10;99.90;;;;;;5050656;28;20021;-75
2023/11/27 01:40:06;;;;;;;1.67;1.05;;;4.00;99.90;;;;;;5032111;28;20021;-74
2023/11/27 01:42:32;;;;;;;1.20;0.68;;;4.00;99.90;;;;;;5032432;28;20051;-75
2023/11/27 01:44:58;;;;;;;4.03;1.85;;;4.00;99.90;;;;;;5028859;28;20021;-75
2023/11/27 01:47:27;;;;;;;2.05;1.20;;;3.90;99.90;;;;;;5030943;28;20044;-74
2023/11/27 01:49:53;;;;;;;6.60;1.33;;;3.80;99.90;;;;;;5051327;28;20025;-75
2023/11/27 01:52:20;;;;;;;3.88;1.65;;;3.80;99.90;;;;;;5050455;28;20033;-75
2023/11/27 01:54:46;;;;;;;3.38;1.65;;;3.80;99.90;;;;;;5030809;28;20034;-74
2023/11/27 01:57:15;;;;;;;0.93;0.65;;;3.80;99.90;;;;;;5032737;28;20036;-75
2023/11/27 01:59:45;;;;;;;1.42;0.73;;;3.70;99.90;;;;;;5032153;28;20684;-75
2023/11/27 02:02:13;;;;;;;6.93;2.47;;;3.70;99.90;;;;;;5032925;28;20113;-75
2023/11/27 02:04:39;;;;;;;1.52;1.08;;;3.70;99.90;;;;;;5031325;28;20025;-74
2023/11/27 02:07:06;;;;;;;1.58;1.33;;;3.60;99.90;;;;;;5053585;28;20035;-74
2023/11/27 02:09:32;;;;;;;1.30;1.13;;;3.60;99.90;;;;;;5032741;28;20025;-75
2023/11/27 02:11:58;;;;;;;1.63;0.95;;;3.60;99.90;;;;;;5032670;28;20060;-74
2023/11/27 02:14:24;;;;;;;2.60;1.50;;;3.60;99.90;;;;;;5014592;28;20041;-75
2023/11/27 02:16:50;;;;;;;0.98;0.98;;;3.60;99.90;;;;;;5029571;28;20025;-75
2023/11/27 02:19:17;;;;;;;1.85;1.67;;;3.60;99.90;;;;;;5026756;28;20034;-75
2023/11/27 02:21:44;;;;;;;4.85;2.00;;;3.60;99.90;;;;;;5049025;28;20131;-75
2023/11/27 02:24:10;;;;;;;1.20;1.13;;;3.60;99.90;;;;;;5025366;28;20469;-75
2023/11/27 02:26:35;;;;;;;1.58;1.17;;;3.60;99.90;;;;;;5028274;28;20029;-74
2023/11/27 02:29:03;;;;;;;1.20;1.02;;;3.60;99.90;;;;;;5027625;28;20099;-74
2023/11/27 02:31:29;;;;;;;0.85;0.85;;;3.60;99.90;;;;;;5031913;28;20585;-73
2023/11/27 02:33:55;;;;;;;0.90;0.77;;;3.60;99.90;;;;;;5029180;28;20025;-74
2023/11/27 02:36:21;;;;;;;1.60;1.45;;;3.50;99.90;;;;;;5027834;28;20063;-74
2023/11/27 02:38:47;;;;;;;1.70;1.60;;;3.50;99.90;;;;;;5032433;28;20028;-74
2023/11/27 02:41:12;;;;;;;1.95;1.17;;;3.50;99.90;;;;;;5032255;28;20044;-74
2023/11/27 02:43:38;;;;;;;4.05;2.03;;;3.50;99.90;;;;;;5053915;28;20021;-75
2023/11/27 02:46:05;;;;;;;10.75;2.55;;;3.60;99.90;;;;;;5031862;28;20401;-74
2023/11/27 02:48:30;;;;;;;2.95;1.15;;;3.60;99.90;;;;;;5034595;28;20626;-77
2023/11/27 02:50:57;;;;;;;1.42;1.05;;;3.50;99.90;;;;;;5039217;28;20033;-74
2023/11/27 02:53:24;;;;;;;0.93;0.88;;;3.50;99.90;;;;;;5034023;28;20107;-73
2023/11/27 02:55:51;;;;;;;3.47;1.92;;;3.50;99.90;;;;;;5032236;28;20204;-74
2023/11/27 02:58:17;;;;;;;5.47;2.25;;;3.50;99.90;;;;;;5030144;28;20021;-74
2023/11/27 03:00:43;;;;;;;1.23;1.05;;;3.60;99.90;;;;;;5045443;28;20082;-73
2023/11/27 03:03:09;;;;;;;3.03;2.03;;;3.60;99.90;;;;;;5019519;28;20378;-74
2023/11/27 03:05:35;;;;;;;5.00;2.22;;;3.60;99.90;;;;;;5015718;28;20037;-74
2023/11/27 03:08:02;;;;;;;1.23;1.13;;;3.60;99.90;;;;;;5027747;28;20033;-74
2023/11/27 03:10:28;;;;;;;4.13;2.20;;;3.50;99.90;;;;;;5044323;28;20647;-74
2023/11/27 03:12:54;;;;;;;1.60;0.95;;;3.50;99.90;;;;;;5026976;28;20022;-74
2023/11/27 03:15:20;;;;;;;1.55;1.35;;;3.50;99.90;;;;;;5033530;28;20028;-74
2023/11/27 03:17:47;;;;;;;3.65;2.78;;;3.50;99.90;;;;;;5017027;28;20108;-74
2023/11/27 03:20:13;;;;;;;9.68;2.50;;;3.50;99.90;;;;;;5047541;28;20131;-73
2023/11/27 03:22:40;;;;;;;6.80;1.70;;;3.50;99.90;;;;;;5032425;28;20029;-72
2023/11/27 03:25:06;;;;;;;11.02;3.08;;;3.50;99.90;;;;;;5013784;28;20056;-73
2023/11/27 03:27:32;;;;;;;1.60;1.35;;;3.50;99.90;;;;;;5027663;28;20033;-74
2023/11/27 03:29:58;;;;;;;2.55;0.80;;;3.50;99.90;;;;;;5015202;28;20032;-73
2023/11/27 03:32:24;;;;;;;1.67;1.25;;;3.40;99.90;;;;;;5032056;28;20452;-73
2023/11/27 03:34:49;;;;;;;0.93;0.85;;;3.40;99.90;;;;;;5017422;28;20037;-73
2023/11/27 03:37:15;;;;;;;1.55;1.17;;;3.40;99.90;;;;;;5054408;28;20033;-74
2023/11/27 03:39:41;;;;;;;6.63;2.95;;;3.40;99.90;;;;;;5032324;28;20029;-73
2023/11/27 03:42:07;;;;;;;1.25;1.15;;;3.40;99.90;;;;;;5051560;28;20040;-74
2023/11/27 03:44:32;;;;;;;2.85;1.80;;;3.40;99.90;;;;;;5017777;28;20566;-74
2023/11/27 03:46:58;;;;;;;2.00;0.77;;;3.50;99.90;;;;;;5035048;28;20025;-73
2023/11/27 03:49:24;;;;;;;2.55;1.70;;;3.50;99.90;;;;;;5034803;28;20025;-74
2023/11/27 03:51:50;;;;;;;2.03;1.67;;;3.40;99.90;;;;;;5014734;28;20029;-74
2023/11/27 03:54:15;;;;;;;5.57;1.98;;;3.50;99.90;;;;;;5049846;28;20056;-74
2023/11/27 03:56:41;;;;;;;3.20;2.10;;;3.50;99.90;;;;;;5030822;28;20034;-73
2023/11/27 03:59:07;;;;;;;4.50;2.55;;;3.50;99.90;;;;;;5030598;28;20094;-74
2023/11/27 04:01:33;;;;;;;1.73;1.58;;;3.40;99.90;;;;;;5033730;28;20040;-73
2023/11/27 04:03:59;;;;;;;2.60;1.40;;;3.40;99.90;;;;;;5030775;28;20360;-74
2023/11/27 04:06:31;;;;;;;2.33;1.02;;;3.40;99.90;;;;;;5032191;28;20111;-74
2023/11/27 04:09:01;;;;;;;5.97;2.35;;;3.40;99.90;;;;;;5030968;28;20022;-75
2023/11/27 04:11:27;;;;;;;2.83;1.73;;;3.40;99.90;;;;;;5030320;28;20053;-74
2023/11/27 04:13:59;;;;;;;4.57;2.67;;;3.30;99.90;;;;;;5031453;28;20111;-75
2023/11/27 04:16:24;;;;;;;12.95;2.03;;;3.30;99.90;;;;;;5031889;28;20025;-75
2023/11/27 04:18:51;;;;;;;2.78;1.63;;;3.40;99.90;;;;;;5017472;28;20500;-74
2023/11/27 04:21:18;;;;;;;1.70;1.38;;;3.30;99.90;;;;;;5030882;28;20112;-74
2023/11/27 04:23:48;;;;;;;4.32;2.22;;;3.40;99.90;;;;;;5030956;28;20022;-74
2023/11/27 04:26:15;;;;;;;3.95;1.50;;;3.30;99.90;;;;;;5027167;28;20370;-74
2023/11/27 04:28:42;;;;;;;2.85;2.17;;;3.30;99.90;;;;;;5013878;28;20030;-74
2023/11/27 04:31:08;;;;;;;2.03;1.52;;;3.20;99.90;;;;;;5026664;28;20060;-74
2023/11/27 04:33:35;;;;;;;1.55;1.10;;;3.20;99.90;;;;;;5051004;28;20078;-72
2023/11/27 04:36:01;;;;;;;1.50;1.40;;;3.20;99.90;;;;;;5031410;28;20033;-73
2023/11/27 04:38:27;;;;;;;3.10;1.67;;;3.20;99.90;;;;;;5033197;28;20393;-73
2023/11/27 04:40:53;;;;;;;17.25;1.75;;;3.20;99.90;;;;;;5024392;28;20362;-74
2023/11/27 04:43:19;;;;;;;1.55;1.30;;;3.20;99.90;;;;;;5030200;28;20025;-74
2023/11/27 04:45:45;;;;;;;2.40;1.80;;;3.20;99.90;;;;;;5041835;28;20107;-74
2023/11/27 04:48:11;;;;;;;3.35;1.77;;;3.20;99.90;;;;;;5030001;28;20031;-76
2023/11/27 04:50:36;;;;;;;4.13;1.95;;;3.20;99.90;;;;;;5037878;28;20107;-75
2023/11/27 04:53:02;;;;;;;4.10;2.13;;;3.20;99.90;;;;;;5051541;28;20388;-75
2023/11/27 04:55:28;;;;;;;2.67;1.75;;;3.20;99.90;;;;;;5046886;28;20021;-75
2023/11/27 04:57:54;;;;;;;5.32;2.88;;;3.20;99.90;;;;;;5030073;28;20030;-75
2023/11/27 05:00:19;;;;;;;1.90;1.35;;;3.20;99.90;;;;;;5043908;28;20390;-75
2023/11/27 05:02:45;;;;;;;2.63;1.63;;;3.20;99.90;;;;;;5051160;28;20481;-75
2023/11/27 05:05:14;;;;;;;3.22;1.90;;;3.20;99.90;;;;;;5032287;28;20029;-76
2023/11/27 05:07:41;;;;;;;3.65;2.22;;;3.20;99.90;;;;;;5025987;28;20119;-75
2023/11/27 05:10:08;;;;;;;4.72;2.90;;;3.20;99.90;;;;;;5032400;28;20032;-75
2023/11/27 05:12:34;;;;;;;2.83;2.40;;;3.20;99.90;;;;;;5029368;28;20083;-75
2023/11/27 05:15:01;;;;;;;3.67;2.25;;;3.20;99.90;;;;;;5027365;28;20542;-75
2023/11/27 05:17:27;;;;;;;1.75;1.65;;;3.20;99.90;;;;;;5033182;28;20102;-73
2023/11/27 05:19:53;;;;;;;1.23;1.13;;;3.20;99.90;;;;;;5029474;28;20611;-74
2023/11/27 05:22:19;;;;;;;2.53;1.95;;;3.20;99.90;;;;;;5048329;28;20024;-75
2023/11/27 05:24:45;;;;;;;6.30;0.82;;;3.10;99.90;;;;;;5049869;28;20388;-74
2023/11/27 05:27:10;;;;;;;1.52;1.42;;;3.10;99.90;;;;;;5032830;28;20055;-74
2023/11/27 05:29:36;;;;;;;3.58;2.13;;;3.10;99.90;;;;;;5031976;28;20384;-74
2023/11/27 05:32:07;;;;;;;2.47;1.67;;;3.10;99.90;;;;;;5041308;28;20231;-75
2023/11/27 05:34:37;;;;;;;;;;;3.10;99.90;;;;;;5032231;28;20029;-75
2023/11/27 05:37:07;;;;;;;2.15;1.63;;;3.10;99.90;;;;;;5035731;28;20380;-75
2023/11/27 05:39:33;;;;;;;2.13;1.60;;;3.10;99.90;;;;;;5031570;28;20039;-75
2023/11/27 05:42:02;;;;;;;2.65;1.85;;;3.10;99.90;;;;;;5032590;28;20029;-75
2023/11/27 05:44:29;;;;;;;2.80;2.55;;;3.10;99.90;;;;;;5050664;28;20028;-75
2023/11/27 05:46:55;;;;;;;3.90;1.95;;;3.10;99.90;;;;;;5029319;28;20095;-75
2023/11/27 05:49:21;;;;;;;4.50;3.08;;;3.10;99.90;;;;;;5027750;28;20029;-76
2023/11/27 05:51:46;;;;;;;1.95;1.63;;;3.10;99.90;;;;;;5028632;28;20708;-75
2023/11/27 05:54:12;;;;;;;1.77;1.63;;;3.00;99.90;;;;;;5048527;28;20061;-75
2023/11/27 05:56:38;;;;;;;1.77;1.65;;;3.00;99.90;;;;;;5050737;28;20428;-76
2023/11/27 05:59:04;;;;;;;8.60;1.67;;;3.00;99.90;;;;;;5053192;28;20072;-74
2023/11/27 06:01:31;;;;;;;1.30;1.00;;;3.00;99.90;;;;;;5051137;28;20025;-74
2023/11/27 06:03:57;;;;;;;1.48;1.38;;;3.00;99.90;;;;;;5051073;28;20028;-76
2023/11/27 06:06:23;;;;;;;4.00;2.38;;;3.00;99.90;;;;;;5049842;28;20037;-74
2023/11/27 06:08:49;;;;;;;1.65;1.33;;;3.00;99.90;;;;;;5012674;28;20080;-75
2023/11/27 06:11:15;;;;;;;6.65;3.17;;;3.00;99.90;;;;;;5025648;28;20021;-75
2023/11/27 06:13:41;;;;;;;12.85;2.63;;;3.00;99.90;;;;;;5030788;28;20022;-73
2023/11/27 06:16:11;;;;;;;1.35;1.17;;;3.00;99.90;;;;;;5041247;28;20038;-73
2023/11/27 06:18:37;;;;;;;2.57;1.60;;;3.00;99.90;;;;;;5020173;28;20094;-75
2023/11/27 06:21:03;;;;;;;1.40;1.30;;;3.00;99.90;;;;;;5047834;28;20469;-76
2023/11/27 06:23:30;;;;;;;2.35;1.98;;;3.00;99.90;;;;;;5035147;28;20033;-76
2023/11/27 06:25:56;;;;;;;0.73;0.70;;;3.00;99.90;;;;;;5035969;28;20040;-74
2023/11/27 06:28:22;;;;;;;2.75;1.63;;;3.00;99.90;;;;;;5053943;28;20066;-75
2023/11/27 06:30:50;;;;;;;3.50;1.73;;;3.00;99.90;;;;;;5049418;28;20505;-74
2023/11/27 06:33:16;;;;;;;2.35;2.15;;;3.00;99.90;;;;;;5033479;28;20032;-75
2023/11/27 06:35:46;;;;;;;2.60;1.60;;;3.00;99.90;;;;;;5013116;28;20489;-77
2023/11/27 06:38:12;;;;;;;2.47;1.97;;;3.00;99.90;;;;;;5052610;28;20021;-75
2023/11/27 06:40:39;;;;;;;7.53;2.65;;;3.00;99.90;;;;;;5052828;28;20083;-75
2023/11/27 06:43:05;;;;;;;2.58;1.42;;;3.00;99.90;;;;;;5053882;28;20167;-76
2023/11/27 06:45:31;;;;;;;3.10;1.77;;;3.00;99.90;;;;;;5050995;28;20504;-76
2023/11/27 06:47:58;;;;;;;2.80;2.35;;;3.00;99.90;;;;;;5035754;28;20025;-76
2023/11/27 06:50:24;;;;;;;1.73;1.58;;;3.00;99.90;;;;;;5041721;28;20039;-76
2023/11/27 06:52:50;;;;;;;1.92;1.80;;;3.00;99.90;;;;;;5029547;28;20101;-76
2023/11/27 06:55:16;;;;;;;2.63;1.88;;;3.00;99.90;;;;;;5043534;28;20111;-77
2023/11/27 06:57:42;;;;;;;1.30;1.20;;;3.00;99.90;;;;;;5011766;28;20032;-76
2023/11/27 07:00:10;;;;;;;1.48;1.08;;;3.00;99.90;;;;;;5035788;28;20017;-76
2023/11/27 07:02:37;;;;;;;3.45;2.45;;;3.00;99.90;;;;;;5035542;28;20042;-76
2023/11/27 07:05:05;;;;;;;1.48;1.23;;;3.00;99.90;;;;;;5037360;28;20033;-76
2023/11/27 07:07:31;;;;;;;2.40;2.20;;;3.00;99.90;;;;;;5051303;28;20040;-75
2023/11/27 07:09:57;;;;;;;0.80;0.77;;;3.10;99.90;;;;;;5035654;28;20043;-75
2023/11/27 07:12:23;;;;;;;3.65;0.95;;;3.00;99.90;;;;;;5035723;28;20484;-76
2023/11/27 07:14:49;;;;;;;1.55;1.45;;;3.10;99.90;;;;;;5032385;28;20093;-76
2023/11/27 07:17:15;;;;;;;1.63;1.33;;;3.10;99.90;;;;;;5028515;28;20396;-60
2023/11/27 07:19:42;;;;;;;2.97;1.63;;;3.10;99.90;;;;;;5034890;28;20040;-59
2023/11/27 07:22:08;;;;;;;2.55;1.52;;;3.10;99.90;;;;;;5044821;28;20052;-57
2023/11/27 07:24:34;;;;;;;7.75;1.90;;;3.10;99.90;;;;;;5052585;28;20945;-59
2023/11/27 07:27:02;;;;;;;2.05;1.10;;;3.10;99.90;;;;;;5051127;28;20021;-60
2023/11/27 07:29:28;;;;;;;2.78;1.52;;;3.20;99.90;;;;;;5035597;28;20025;-74
2023/11/27 07:31:54;;;;;;;13.93;1.55;;;3.10;99.90;;;;;;5034954;28;20789;-75
2023/11/27 07:34:21;;;;;;;2.83;1.98;;;3.20;99.90;;;;;;5031726;28;20017;-75
2023/11/27 07:36:48;;;;;;;0.65;0.65;;;3.20;99.90;;;;;;5044512;28;20055;-75
2023/11/27 07:39:14;;;;;;;0.85;0.80;;;3.20;99.90;;;;;;5017723;28;20032;-75
2023/11/27 07:41:39;;;;;;;3.00;1.80;;;3.20;99.90;;;;;;5026867;28;20397;-76
2023/11/27 07:44:05;;;;;;;2.92;2.38;;;3.20;99.90;;;;;;5051766;28;20029;-76
2023/11/27 07:46:31;;;;;;;3.60;1.42;;;3.20;99.90;;;;;;5034628;28;20056;-75
2023/11/27 07:48:57;;;;;;;0.88;0.70;;;3.20;99.90;;;;;;5051028;28;20029;-76
2023/11/27 07:51:23;;;;;;;0.80;0.77;;;3.20;99.90;;;;;;5015808;28;20029;-76
2023/11/27 07:53:49;;;;;;;1.48;1.33;;;3.20;99.90;;;;;;5048437;28;20025;-76
2023/11/27 07:56:28;;;;;;;1.80;1.55;;;3.20;99.90;;;;;;5028912;28;20381;-76
2023/11/27 07:58:57;;;;;;;19.55;2.25;;;3.30;99.90;;;;;;5027442;28;20113;-77
2023/11/27 08:01:24;;;;;;;2.83;1.90;;;3.30;99.90;;;;;;5009806;28;20124;-76
2023/11/27 08:03:51;;;;;;;8.02;2.95;;;3.40;99.90;;;;;;5034115;28;20028;-77
2023/11/27 08:06:17;;;;;;;3.28;1.70;;;3.40;99.90;;;;;;5033535;28;20064;-77
2023/11/27 08:08:43;;;;;;;2.65;1.80;;;3.40;99.90;;;;;;5063207;28;20028;-76
2023/11/27 08:11:09;;;;;;;9.90;2.65;;;3.40;99.90;;;;;;5044908;28;20028;-77
2023/11/27 08:13:37;;;;;;;1.38;1.27;;;3.40;99.90;;;;;;5037956;28;20204;-75
2023/11/27 08:16:04;;;;;;;0.80;0.70;;;3.80;99.90;;;;;;5033974;28;20036;-75
2023/11/27 08:18:29;;;;;;;2.63;1.33;;;3.50;99.90;;;;;;5033585;28;20040;-77
2023/11/27 08:20:56;;;;;;;5.43;2.05;;;3.40;99.90;;;;;;5028619;28;20029;-77
2023/11/27 08:23:22;;;;;;;3.35;2.17;;;3.40;99.90;;;;;;5031213;28;20481;-76
2023/11/27 08:25:47;;;;;;;2.25;1.35;;;3.40;99.90;;;;;;5010484;28;20107;-77
2023/11/27 08:28:13;;;;;;;2.78;1.60;;;3.40;99.90;;;;;;5019369;28;20017;-77
2023/11/27 08:30:41;;;;;;;3.85;1.88;;;3.40;99.90;;;;;;5033322;28;20496;-77
2023/11/27 08:33:08;;;;;;;3.47;2.47;;;3.50;99.90;;;;;;5038904;28;20104;-77
2023/11/27 08:35:34;;;;;;;3.58;2.35;;;3.50;99.90;;;;;;5031639;28;20454;-77
2023/11/27 08:38:01;;;;;;;2.97;2.25;;;3.50;99.90;;;;;;5011182;28;20053;-77
2023/11/27 08:40:27;;;;;;;2.83;2.38;;;3.60;99.90;;;;;;5049169;28;20359;-77
2023/11/27 08:42:53;;;;;;;5.85;1.50;;;3.60;99.90;;;;;;5044453;28;20044;-77
2023/11/27 08:45:19;;;;;;;1.92;1.20;;;3.60;99.90;;;;;;5050596;28;20028;-77
2023/11/27 08:47:51;;;;;;;2.40;1.63;;;3.60;99.90;;;;;;5043653;28;20067;-76
2023/11/27 08:50:24;;;;;;;2.60;2.00;;;3.70;99.90;;;;;;5050201;28;20036;-76
2023/11/27 08:52:50;;;;;;;3.45;2.95;;;3.80;99.90;;;;;;5028975;28;20384;-76
2023/11/27 08:55:19;;;;;;;2.05;1.88;;;3.80;99.90;;;;;;5029608;28;20021;-76
2023/11/27 08:57:48;;;;;;;1.08;0.90;;;3.80;99.90;;;;;;5041915;28;20273;-76
2023/11/27 09:00:18;;;;;;;0.75;0.75;;;3.80;99.90;;;;;;5051012;28;20033;-76
2023/11/27 09:02:46;;;;;;;1.27;1.20;;;3.90;99.90;;;;;;5036807;28;20025;-77
2023/11/27 09:05:12;;;;;;;6.85;2.60;;;3.90;99.90;;;;;;5033329;28;20059;-76
2023/11/27 09:07:38;;;;;;;1.77;1.42;;;4.00;99.90;;;;;;5032674;28;20025;-76
2023/11/27 09:10:06;;;;;;;2.05;1.13;;;4.00;99.90;;;;;;5030002;28;20026;-76
2023/11/27 09:12:32;;;;;;;2.58;1.38;;;4.00;99.90;;;;;;5015266;28;20033;-76
2023/11/27 09:15:00;;;;;;;3.70;2.30;;;4.00;99.90;;;;;;5017062;28;20099;-76
2023/11/27 09:17:26;;;;;;;2.13;1.65;;;4.00;99.90;;;;;;5031199;28;20017;-76
2023/11/27 09:19:52;;;;;;;2.45;2.15;;;4.00;99.90;;;;;;5011603;28;20061;-76
2023/11/27 09:22:21;;;;;;;3.80;1.63;;;4.00;99.90;;;;;;5030273;28;20060;-76
2023/11/27 09:24:48;;;;;;;2.13;1.92;;;4.00;99.90;;;;;;5032760;28;20025;-76
2023/11/27 09:27:14;;;;;;;2.58;1.25;;;4.00;99.90;;;;;;5031432;28;20021;-77
2023/11/27 09:29:40;;;;;;;2.65;1.52;;;4.00;99.90;;;;;;5031737;28;20017;-76
2023/11/27 09:32:06;;;;;;;2.38;2.17;;;4.00;99.90;;;;;;5014649;28;20111;-76
2023/11/27 09:34:32;;;;;;;1.42;1.23;;;4.10;99.90;;;;;;5035438;28;20131;-77
2023/11/27 09:36:58;;;;;;;2.55;1.15;;;4.10;99.90;;;;;;5034055;28;20063;-77
2023/11/27 09:39:24;;;;;;;4.70;1.35;;;4.20;99.90;;;;;;5024285;28;20061;-77
2023/11/27 09:41:50;;;;;;;8.40;2.72;;;4.20;99.90;;;;;;5031790;28;20417;-77
2023/11/27 09:44:18;;;;;;;3.00;1.90;;;4.20;99.90;;;;;;5033004;28;20485;-78
2023/11/27 09:46:46;;;;;;;1.75;0.82;;;4.20;99.90;;;;;;5029372;28;20025;-76
2023/11/27 09:49:23;;;;;;;1.48;1.38;;;4.20;99.90;;;;;;5030589;28;20040;-76
2023/11/27 09:51:55;;;;;;;3.75;2.80;;;4.20;99.90;;;;;;5047085;28;20104;-76
2023/11/27 09:54:27;;;;;;;4.47;1.48;;;4.10;99.90;;;;;;5029995;28;20040;-76
2023/11/27 09:56:54;;;;;;;0.98;0.93;;;4.10;99.90;;;;;;5034509;28;20041;-77
2023/11/27 09:59:20;;;;;;;3.05;1.75;;;4.10;99.90;;;;;;5049412;28;20067;-76
2023/11/27 10:01:49;;;;;;;2.63;1.38;;;4.10;99.90;;;;;;5028121;28;20052;-75
2023/11/27 10:04:15;;;;;;;1.27;1.00;;;4.20;99.90;;;;;;5047432;28;20064;-76
2023/11/27 10:06:43;;;;;;;6.80;3.38;;;4.20;99.90;;;;;;5043004;28;20112;-76
2023/11/27 10:09:13;;;;;;;1.65;1.45;;;4.20;99.90;;;;;;5032218;28;20048;-76
2023/11/27 10:11:40;;;;;;;2.27;1.47;;;4.20;99.90;;;;;;5032273;28;20025;-77
2023/11/27 10:14:11;;;;;;;0.77;0.77;;;4.30;99.90;;;;;;5032509;28;20392;-77
2023/11/27 10:16:39;;;;;;;4.13;2.23;;;4.30;99.90;;;;;;5032631;28;20513;-76
2023/11/27 10:19:13;;;;;;;3.00;2.50;;;4.40;99.90;;;;;;5032134;28;20286;-76
2023/11/27 10:21:41;;;;;;;3.38;2.17;;;4.40;99.90;;;;;;5048636;28;20025;-77
2023/11/27 10:24:10;;;;;;;2.50;1.38;;;4.40;99.90;;;;;;5029753;28;20072;-73
2023/11/27 10:26:41;;;;;;;1.50;1.40;;;4.50;99.90;;;;;;5030864;28;20083;-74
2023/11/27 10:29:08;;;;;;;2.88;1.17;;;4.50;99.90;;;;;;5046952;28;20067;-73
2023/11/27 10:31:35;;;;;;;3.10;1.05;;;4.60;99.90;;;;;;5031110;28;20141;-73
2023/11/27 10:34:02;;;;;;;4.97;1.58;;;4.50;99.90;;;;;;5050068;28;20326;-73
2023/11/27 10:36:28;;;;;;;5.13;2.03;;;4.60;99.90;;;;;;5031807;28;20255;-72
2023/11/27 10:39:15;;;;;;;1.65;1.52;;;4.60;99.90;;;;;;5033188;28;20536;-73
2023/11/27 10:41:47;;;;;;;4.40;1.52;;;4.60;99.90;;;;;;5049252;28;20049;-73
2023/11/27 10:44:15;;;;;;;3.30;1.65;;;4.50;99.90;;;;;;5032448;28;20032;-75
2023/11/27 10:46:43;;;;;;;3.92;1.92;;;4.60;99.90;;;;;;5045453;28;20039;-72
2023/11/27 10:49:14;;;;;;;1.77;1.63;;;4.60;99.90;;;;;;5047747;28;20664;-73
2023/11/27 10:51:42;;;;;;;5.30;0.63;;;4.60;99.90;;;;;;5048096;28;20035;-74
2023/11/27 10:54:11;;;;;;;3.00;1.95;;;4.50;99.90;;;;;;5052319;28;20029;-73
2023/11/27 10:56:39;;;;;;;0.50;0.50;;;4.50;99.90;;;;;;5045795;28;20037;-73
2023/11/27 10:59:05;;;;;;;2.15;1.85;;;4.40;99.90;;;;;;5015495;28;20064;-75
2023/11/27 11:01:40;;;;;;;4.35;1.58;;;4.50;99.90;;;;;;5031331;28;20082;-73
2023/11/27 11:04:19;;;;;;;2.20;1.05;;;4.40;99.90;;;;;;5055409;28;20033;-75
2023/11/27 11:06:52;;;;;;;2.10;0.90;;;4.40;99.90;;;;;;5028916;28;20033;-74
2023/11/27 11:09:24;;;;;;;1.98;1.02;;;4.40;99.90;;;;;;5015610;28;20029;-73
2023/11/27 11:11:51;;;;;;;1.23;0.93;;;4.40;99.90;;;;;;5035071;28;20032;-72
2023/11/27 11:14:19;;;;;;;1.33;0.90;;;4.40;99.90;;;;;;5053221;28;20058;-73
2023/11/27 11:17:25;;;;;;;3.28;1.75;;;4.50;99.90;;;;;;5031287;28;20045;-74
2023/11/27 11:20:14;;;;;;;2.03;0.70;;;4.60;99.90;;;;;;5028768;28;20037;-74
2023/11/27 11:23:27;;;;;;;15.63;1.17;;;4.60;99.90;;;;;;5003692;28;20075;-74
2023/11/27 11:26:23;;;;;;;2.83;1.40;;;4.60;99.90;;;;;;5045507;28;20044;-74
2023/11/27 11:29:22;;;;;;;1.85;0.73;;;4.70;99.90;;;;;;5044546;28;20025;-74
2023/11/27 11:32:06;;;;;;;2.20;1.65;;;4.60;99.90;;;;;;5051687;28;20036;-74
2023/11/27 11:34:38;;;;;;;3.50;1.30;;;4.60;99.90;;;;;;5035485;28;20462;-74
2023/11/27 11:37:07;;;;;;;1.80;1.35;;;4.60;99.90;;;;;;5032224;28;20054;-74
2023/11/27 11:39:36;;;;;;;1.67;1.50;;;4.60;99.90;;;;;;5032869;28;20033;-74
2023/11/27 11:42:13;;;;;;;1.48;1.00;;;4.60;99.90;;;;;;5033651;28;20021;-74
2023/11/27 11:44:41;;;;;;;4.60;1.65;;;4.60;99.90;;;;;;5050811;28;20029;-74
2023/11/27 11:47:26;;;;;;;1.15;0.80;;;4.70;99.90;;;;;;5033229;28;20028;-75
2023/11/27 11:50:28;;;;;;;0.90;0.90;;;4.70;99.90;;;;;;5016272;28;20021;-74
2023/11/27 11:53:04;;;;;;;2.45;0.80;;;4.70;99.90;;;;;;5050123;28;20021;-74
2023/11/27 11:55:35;;;;;;;1.52;1.13;;;4.70;99.90;;;;;;5050384;28;20047;-74
2023/11/27 11:58:18;;;;;;;0.90;0.45;;;4.70;99.90;;;;;;5033102;28;20485;-75
2023/11/27 12:00:46;;;;;;;1.20;1.00;;;4.60;99.90;;;;;;5053035;28;20029;-73
2023/11/27 12:03:17;;;;;;;0.63;0.47;;;4.60;99.90;;;;;;5031151;28;20025;-73
2023/11/27 12:05:56;;;;;;;0.98;0.70;;;4.50;99.90;;;;;;5034104;28;20021;-74
2023/11/27 12:08:25;;;;;;;1.25;1.15;;;4.50;99.90;;;;;;5030780;28;20482;-74
2023/11/27 12:10:55;;;;;;;1.35;1.25;;;4.30;99.90;;;;;;5033732;28;20028;-74
2023/11/27 12:13:23;;;;;;;2.78;1.05;;;4.30;99.90;;;;;;5030046;28;20025;-73
2023/11/27 12:15:58;;;;;;;2.72;0.88;;;4.30;99.90;;;;;;5033850;28;20032;-74
2023/11/27 12:18:26;;;;;;;2.22;1.48;;;4.20;99.90;;;;;;5043553;28;20029;-74
2023/11/27 12:20:52;;;;;;;1.25;0.95;;;4.20;99.90;;;;;;5033900;28;20355;-73
2023/11/27 12:23:19;;;;;;;1.63;1.23;;;4.20;99.90;;;;;;5051037;28;20048;-73
2023/11/27 12:25:44;;;;;;;1.40;1.15;;;4.20;99.90;;;;;;5030770;28;20060;-73
2023/11/27 12:28:12;;;;;;;1.50;1.05;;;4.10;99.90;;;;;;5029973;28;20049;-74
2023/11/27 12:30:39;;;;;;;2.08;0.70;;;4.10;99.90;;;;;;5035520;28;20033;-75
2023/11/27 12:33:07;;;;;;;1.35;0.88;;;4.10;99.90;;;;;;5030200;28;20497;-74
2023/11/27 12:35:34;;;;;;;1.88;0.52;;;4.00;99.90;;;;;;5049772;28;20033;-73
2023/11/27 12:38:06;;;;;;;1.02;0.93;;;3.90;99.90;;;;;;5033088;28;20116;-73
2023/11/27 12:40:34;;;;;;;5.97;0.82;;;3.90;99.90;;;;;;5033306;28;20547;-75
2023/11/27 12:43:04;;;;;;;10.38;1.17;;;3.90;99.90;;;;;;5043191;28;20021;-72
2023/11/27 12:45:35;;;;;;;0.65;0.63;;;3.80;99.90;;;;;;5051185;28;20065;-73
2023/11/27 12:48:06;;;;;;;2.90;1.10;;;3.80;99.90;;;;;;5029099;28;20039;-73
2023/11/27 12:50:39;;;;;;;2.92;1.55;;;3.70;99.90;;;;;;5032052;28;20021;-73
2023/11/27 12:53:07;;;;;;;1.02;0.75;;;3.70;99.90;;;;;;5039583;28;20581;-74
2023/11/27 12:55:38;;;;;;;0.43;0.43;;;3.70;99.90;;;;;;5042266;28;20077;-73
2023/11/27 12:58:11;;;;;;;1.30;1.20;;;3.70;99.90;;;;;;5045358;28;20566;-73
2023/11/27 13:00:43;;;;;;;1.20;0.95;;;3.70;99.90;;;;;;5016840;28;20430;-72